sensor_id;sensor_type;location;lat;lon;timestamp;P1;durP1;ratioP1;P2;durP2;ratioP2
83684;SDS011;73666;51.304;5.776;2023-11-21T00:00:59;6.55;;;3.47;;
83684;SDS011;73666;51.304;5.776;2023-11-21T00:06:03;10.13;;;4.32;;
83684;SDS011;73666;51.304;5.776;2023-11-21T00:11:08;7.00;;;3.08;;
83684;SDS011;73666;51.304;5.776;2023-11-21T00:16:10;14.10;;;4.05;;
83684;SDS011;73666;51.304;5.776;2023-11-21T00:21:10;10.68;;;4.63;;
83684;SDS011;73666;51.304;5.776;2023-11-21T00:26:12;13.85;;;5.22;;
83684;SDS011;73666;51.304;5.776;2023-11-21T00:31:14;8.40;;;4.97;;
83684;SDS011;73666;51.304;5.776;2023-11-21T00:36:14;11.02;;;4.50;;
83684;SDS011;73666;51.304;5.776;2023-11-21T00:41:15;9.98;;;5.53;;
83684;SDS011;73666;51.304;5.776;2023-11-21T00:46:16;13.45;;;5.28;;
83684;SDS011;73666;51.304;5.776;2023-11-21T00:51:16;11.15;;;4.57;;
83684;SDS011;73666;51.304;5.776;2023-11-21T00:56:18;13.57;;;4.95;;
83684;SDS011;73666;51.304;5.776;2023-11-21T01:01:19;11.02;;;5.20;;
83684;SDS011;73666;51.304;5.776;2023-11-21T01:06:21;13.82;;;5.13;;
83684;SDS011;73666;51.304;5.776;2023-11-21T01:11:22;12.43;;;4.75;;
83684;SDS011;73666;51.304;5.776;2023-11-21T01:16:23;15.35;;;4.93;;
83684;SDS011;73666;51.304;5.776;2023-11-21T01:21:25;15.15;;;5.60;;
83684;SDS011;73666;51.304;5.776;2023-11-21T01:26:25;12.20;;;4.55;;
83684;SDS011;73666;51.304;5.776;2023-11-21T01:31:26;17.85;;;6.55;;
83684;SDS011;73666;51.304;5.776;2023-11-21T01:36:30;14.20;;;6.45;;
83684;SDS011;73666;51.304;5.776;2023-11-21T01:41:32;22.83;;;7.20;;
83684;SDS011;73666;51.304;5.776;2023-11-21T01:46:33;15.82;;;7.00;;
83684;SDS011;73666;51.304;5.776;2023-11-21T01:51:35;22.70;;;7.55;;
83684;SDS011;73666;51.304;5.776;2023-11-21T01:56:36;13.32;;;6.30;;
83684;SDS011;73666;51.304;5.776;2023-11-21T02:01:37;21.27;;;7.68;;
83684;SDS011;73666;51.304;5.776;2023-11-21T02:06:38;27.83;;;7.47;;
83684;SDS011;73666;51.304;5.776;2023-11-21T02:11:39;17.30;;;7.15;;
83684;SDS011;73666;51.304;5.776;2023-11-21T02:16:39;17.58;;;6.88;;
83684;SDS011;73666;51.304;5.776;2023-11-21T02:21:40;14.18;;;6.65;;
83684;SDS011;73666;51.304;5.776;2023-11-21T02:26:42;13.18;;;5.95;;
83684;SDS011;73666;51.304;5.776;2023-11-21T02:31:43;18.38;;;6.45;;
83684;SDS011;73666;51.304;5.776;2023-11-21T02:36:49;12.57;;;7.13;;
83684;SDS011;73666;51.304;5.776;2023-11-21T02:41:51;13.57;;;6.38;;
83684;SDS011;73666;51.304;5.776;2023-11-21T02:46:51;16.15;;;6.22;;
83684;SDS011;73666;51.304;5.776;2023-11-21T02:51:52;12.43;;;5.65;;
83684;SDS011;73666;51.304;5.776;2023-11-21T02:56:54;15.20;;;7.80;;
83684;SDS011;73666;51.304;5.776;2023-11-21T03:01:55;14.35;;;7.72;;
83684;SDS011;73666;51.304;5.776;2023-11-21T03:06:57;16.60;;;7.28;;
83684;SDS011;73666;51.304;5.776;2023-11-21T03:11:58;16.00;;;8.57;;
83684;SDS011;73666;51.304;5.776;2023-11-21T03:16:58;16.45;;;7.25;;
83684;SDS011;73666;51.304;5.776;2023-11-21T03:21:59;18.02;;;7.95;;
83684;SDS011;73666;51.304;5.776;2023-11-21T03:27:00;19.02;;;8.23;;
83684;SDS011;73666;51.304;5.776;2023-11-21T03:32:01;26.92;;;9.20;;
83684;SDS011;73666;51.304;5.776;2023-11-21T03:37:02;26.55;;;9.52;;
83684;SDS011;73666;51.304;5.776;2023-11-21T03:42:03;25.58;;;8.38;;
83684;SDS011;73666;51.304;5.776;2023-11-21T03:47:04;29.45;;;9.75;;
83684;SDS011;73666;51.304;5.776;2023-11-21T03:52:05;33.47;;;9.98;;
83684;SDS011;73666;51.304;5.776;2023-11-21T03:57:07;25.95;;;8.98;;
83684;SDS011;73666;51.304;5.776;2023-11-21T04:02:09;30.60;;;7.90;;
83684;SDS011;73666;51.304;5.776;2023-11-21T04:07:10;36.58;;;7.05;;
83684;SDS011;73666;51.304;5.776;2023-11-21T04:12:11;23.33;;;7.43;;
83684;SDS011;73666;51.304;5.776;2023-11-21T04:17:11;20.45;;;7.35;;
83684;SDS011;73666;51.304;5.776;2023-11-21T04:22:12;33.60;;;7.78;;
83684;SDS011;73666;51.304;5.776;2023-11-21T04:27:13;25.20;;;8.23;;
83684;SDS011;73666;51.304;5.776;2023-11-21T04:32:14;20.85;;;7.00;;
83684;SDS011;73666;51.304;5.776;2023-11-21T04:37:16;22.25;;;7.57;;
83684;SDS011;73666;51.304;5.776;2023-11-21T04:42:16;21.15;;;7.50;;
83684;SDS011;73666;51.304;5.776;2023-11-21T04:47:18;15.43;;;7.47;;
83684;SDS011;73666;51.304;5.776;2023-11-21T04:57:20;18.38;;;7.03;;
83684;SDS011;73666;51.304;5.776;2023-11-21T05:02:21;31.77;;;7.18;;
83684;SDS011;73666;51.304;5.776;2023-11-21T05:07:22;20.95;;;6.75;;
83684;SDS011;73666;51.304;5.776;2023-11-21T05:12:23;21.70;;;7.07;;
83684;SDS011;73666;51.304;5.776;2023-11-21T05:17:24;20.98;;;6.70;;
83684;SDS011;73666;51.304;5.776;2023-11-21T05:22:25;20.00;;;6.75;;
83684;SDS011;73666;51.304;5.776;2023-11-21T05:27:25;12.65;;;5.13;;
83684;SDS011;73666;51.304;5.776;2023-11-21T05:32:26;17.10;;;6.18;;
83684;SDS011;73666;51.304;5.776;2023-11-21T05:37:27;15.88;;;6.63;;
83684;SDS011;73666;51.304;5.776;2023-11-21T05:42:28;20.20;;;6.63;;
83684;SDS011;73666;51.304;5.776;2023-11-21T05:47:31;16.25;;;6.15;;
83684;SDS011;73666;51.304;5.776;2023-11-21T05:52:32;21.70;;;6.40;;
83684;SDS011;73666;51.304;5.776;2023-11-21T05:57:37;25.73;;;6.47;;
83684;SDS011;73666;51.304;5.776;2023-11-21T06:02:39;16.38;;;6.45;;
83684;SDS011;73666;51.304;5.776;2023-11-21T06:07:40;21.23;;;6.38;;
83684;SDS011;73666;51.304;5.776;2023-11-21T06:12:41;24.65;;;7.05;;
83684;SDS011;73666;51.304;5.776;2023-11-21T06:17:42;21.88;;;7.30;;
83684;SDS011;73666;51.304;5.776;2023-11-21T06:22:45;14.10;;;6.20;;
83684;SDS011;73666;51.304;5.776;2023-11-21T06:27:47;17.95;;;7.70;;
83684;SDS011;73666;51.304;5.776;2023-11-21T06:32:48;22.55;;;7.35;;
83684;SDS011;73666;51.304;5.776;2023-11-21T06:37:49;19.23;;;7.13;;
83684;SDS011;73666;51.304;5.776;2023-11-21T06:42:51;16.10;;;6.75;;
83684;SDS011;73666;51.304;5.776;2023-11-21T06:47:52;13.60;;;6.22;;
83684;SDS011;73666;51.304;5.776;2023-11-21T06:52:53;15.82;;;6.22;;
83684;SDS011;73666;51.304;5.776;2023-11-21T06:57:53;15.32;;;7.28;;
83684;SDS011;73666;51.304;5.776;2023-11-21T07:02:55;18.70;;;7.43;;
83684;SDS011;73666;51.304;5.776;2023-11-21T07:07:55;17.52;;;7.65;;
83684;SDS011;73666;51.304;5.776;2023-11-21T07:12:56;21.38;;;6.97;;
83684;SDS011;73666;51.304;5.776;2023-11-21T07:17:57;18.77;;;6.88;;
83684;SDS011;73666;51.304;5.776;2023-11-21T07:22:58;22.20;;;7.07;;
83684;SDS011;73666;51.304;5.776;2023-11-21T07:28:00;24.40;;;7.43;;
83684;SDS011;73666;51.304;5.776;2023-11-21T07:33:00;21.55;;;7.35;;
83684;SDS011;73666;51.304;5.776;2023-11-21T07:38:01;27.75;;;9.60;;
83684;SDS011;73666;51.304;5.776;2023-11-21T07:43:06;26.45;;;8.30;;
83684;SDS011;73666;51.304;5.776;2023-11-21T07:48:07;31.63;;;8.90;;
83684;SDS011;73666;51.304;5.776;2023-11-21T07:53:08;25.83;;;8.50;;
83684;SDS011;73666;51.304;5.776;2023-11-21T07:58:09;25.33;;;8.15;;
83684;SDS011;73666;51.304;5.776;2023-11-21T08:03:10;32.17;;;9.40;;
83684;SDS011;73666;51.304;5.776;2023-11-21T08:08:12;29.38;;;9.23;;
83684;SDS011;73666;51.304;5.776;2023-11-21T08:13:12;29.85;;;8.60;;
83684;SDS011;73666;51.304;5.776;2023-11-21T08:18:16;38.28;;;13.85;;
83684;SDS011;73666;51.304;5.776;2023-11-21T08:23:17;28.15;;;10.48;;
83684;SDS011;73666;51.304;5.776;2023-11-21T08:28:18;33.88;;;10.55;;
83684;SDS011;73666;51.304;5.776;2023-11-21T08:33:19;36.35;;;11.45;;
83684;SDS011;73666;51.304;5.776;2023-11-21T08:38:20;38.00;;;11.23;;
83684;SDS011;73666;51.304;5.776;2023-11-21T08:43:21;35.17;;;9.93;;
83684;SDS011;73666;51.304;5.776;2023-11-21T08:48:23;34.90;;;11.00;;
83684;SDS011;73666;51.304;5.776;2023-11-21T08:53:23;50.72;;;20.25;;
83684;SDS011;73666;51.304;5.776;2023-11-21T08:58:26;39.50;;;14.32;;
83684;SDS011;73666;51.304;5.776;2023-11-21T09:03:27;44.00;;;12.95;;
83684;SDS011;73666;51.304;5.776;2023-11-21T09:08:28;29.85;;;10.35;;
83684;SDS011;73666;51.304;5.776;2023-11-21T09:13:29;35.42;;;13.23;;
83684;SDS011;73666;51.304;5.776;2023-11-21T09:18:30;26.48;;;10.43;;
83684;SDS011;73666;51.304;5.776;2023-11-21T09:23:30;26.83;;;7.30;;
83684;SDS011;73666;51.304;5.776;2023-11-21T09:28:31;29.60;;;10.35;;
83684;SDS011;73666;51.304;5.776;2023-11-21T09:33:32;26.45;;;9.45;;
83684;SDS011;73666;51.304;5.776;2023-11-21T09:38:34;30.42;;;11.82;;
83684;SDS011;73666;51.304;5.776;2023-11-21T09:43:39;30.13;;;9.98;;
83684;SDS011;73666;51.304;5.776;2023-11-21T09:48:40;23.20;;;9.05;;
83684;SDS011;73666;51.304;5.776;2023-11-21T09:53:41;19.80;;;8.30;;
83684;SDS011;73666;51.304;5.776;2023-11-21T09:58:44;28.38;;;9.43;;
83684;SDS011;73666;51.304;5.776;2023-11-21T10:03:45;24.98;;;8.57;;
83684;SDS011;73666;51.304;5.776;2023-11-21T10:08:47;27.63;;;8.18;;
83684;SDS011;73666;51.304;5.776;2023-11-21T10:13:51;21.58;;;8.20;;
83684;SDS011;73666;51.304;5.776;2023-11-21T10:18:58;24.63;;;9.15;;
83684;SDS011;73666;51.304;5.776;2023-11-21T10:23:59;22.55;;;8.23;;
83684;SDS011;73666;51.304;5.776;2023-11-21T10:29:01;22.63;;;7.93;;
83684;SDS011;73666;51.304;5.776;2023-11-21T10:34:12;21.40;;;7.75;;
83684;SDS011;73666;51.304;5.776;2023-11-21T10:39:14;19.85;;;8.20;;
83684;SDS011;73666;51.304;5.776;2023-11-21T10:44:19;18.27;;;6.95;;
83684;SDS011;73666;51.304;5.776;2023-11-21T10:49:26;24.23;;;7.93;;
83684;SDS011;73666;51.304;5.776;2023-11-21T10:54:27;22.95;;;9.30;;
83684;SDS011;73666;51.304;5.776;2023-11-21T10:59:29;22.13;;;9.43;;
83684;SDS011;73666;51.304;5.776;2023-11-21T11:04:30;21.30;;;9.02;;
83684;SDS011;73666;51.304;5.776;2023-11-21T11:09:32;18.80;;;8.27;;
83684;SDS011;73666;51.304;5.776;2023-11-21T11:14:33;20.38;;;7.95;;
83684;SDS011;73666;51.304;5.776;2023-11-21T11:19:35;20.23;;;7.60;;
83684;SDS011;73666;51.304;5.776;2023-11-21T11:24:42;19.92;;;7.82;;
83684;SDS011;73666;51.304;5.776;2023-11-21T11:35:07;18.15;;;6.30;;
83684;SDS011;73666;51.304;5.776;2023-11-21T11:45:17;22.92;;;8.00;;
83684;SDS011;73666;51.304;5.776;2023-11-21T11:50:19;19.85;;;7.80;;
83684;SDS011;73666;51.304;5.776;2023-11-21T11:55:20;22.23;;;8.55;;
83684;SDS011;73666;51.304;5.776;2023-11-21T12:05:27;22.92;;;9.40;;
83684;SDS011;73666;51.304;5.776;2023-11-21T12:10:28;21.48;;;9.27;;
83684;SDS011;73666;51.304;5.776;2023-11-21T12:15:31;15.25;;;6.90;;
83684;SDS011;73666;51.304;5.776;2023-11-21T12:20:31;21.40;;;8.90;;
83684;SDS011;73666;51.304;5.776;2023-11-21T12:25:38;17.42;;;7.47;;
83684;SDS011;73666;51.304;5.776;2023-11-21T12:30:39;21.88;;;7.90;;
83684;SDS011;73666;51.304;5.776;2023-11-21T12:35:40;16.05;;;7.68;;
83684;SDS011;73666;51.304;5.776;2023-11-21T12:40:43;16.92;;;7.68;;
83684;SDS011;73666;51.304;5.776;2023-11-21T12:45:44;16.67;;;6.93;;
83684;SDS011;73666;51.304;5.776;2023-11-21T12:50:45;22.50;;;7.53;;
83684;SDS011;73666;51.304;5.776;2023-11-21T12:55:48;17.10;;;7.15;;
83684;SDS011;73666;51.304;5.776;2023-11-21T13:00:51;16.58;;;7.07;;
83684;SDS011;73666;51.304;5.776;2023-11-21T13:05:54;20.35;;;7.72;;
83684;SDS011;73666;51.304;5.776;2023-11-21T13:10:57;18.42;;;7.93;;
83684;SDS011;73666;51.304;5.776;2023-11-21T13:16:01;19.00;;;7.65;;
83684;SDS011;73666;51.304;5.776;2023-11-21T13:21:05;14.45;;;6.38;;
83684;SDS011;73666;51.304;5.776;2023-11-21T13:26:16;14.20;;;6.65;;
83684;SDS011;73666;51.304;5.776;2023-11-21T13:31:17;15.52;;;7.28;;
83684;SDS011;73666;51.304;5.776;2023-11-21T13:36:27;17.05;;;7.20;;
83684;SDS011;73666;51.304;5.776;2023-11-21T13:41:31;12.35;;;6.57;;
83684;SDS011;73666;51.304;5.776;2023-11-21T13:46:32;12.32;;;6.30;;
83684;SDS011;73666;51.304;5.776;2023-11-21T13:51:37;12.80;;;6.60;;
83684;SDS011;73666;51.304;5.776;2023-11-21T13:56:43;16.08;;;7.13;;
83684;SDS011;73666;51.304;5.776;2023-11-21T14:01:46;14.05;;;6.85;;
83684;SDS011;73666;51.304;5.776;2023-11-21T14:06:53;14.45;;;7.57;;
83684;SDS011;73666;51.304;5.776;2023-11-21T14:11:55;17.92;;;7.47;;
83684;SDS011;73666;51.304;5.776;2023-11-21T14:16:59;13.68;;;6.78;;
83684;SDS011;73666;51.304;5.776;2023-11-21T14:22:00;11.15;;;5.78;;
83684;SDS011;73666;51.304;5.776;2023-11-21T14:27:01;13.82;;;6.10;;
83684;SDS011;73666;51.304;5.776;2023-11-21T14:32:02;11.10;;;4.78;;
83684;SDS011;73666;51.304;5.776;2023-11-21T14:37:03;14.25;;;5.75;;
83684;SDS011;73666;51.304;5.776;2023-11-21T14:42:07;11.63;;;5.85;;
83684;SDS011;73666;51.304;5.776;2023-11-21T14:47:08;14.02;;;6.03;;
83684;SDS011;73666;51.304;5.776;2023-11-21T14:52:15;15.65;;;6.95;;
83684;SDS011;73666;51.304;5.776;2023-11-21T14:57:34;12.35;;;5.85;;
83684;SDS011;73666;51.304;5.776;2023-11-21T15:02:36;17.05;;;6.63;;
83684;SDS011;73666;51.304;5.776;2023-11-21T15:07:49;13.10;;;6.57;;
83684;SDS011;73666;51.304;5.776;2023-11-21T15:12:52;16.77;;;6.40;;
83684;SDS011;73666;51.304;5.776;2023-11-21T15:17:52;12.82;;;6.10;;
83684;SDS011;73666;51.304;5.776;2023-11-21T15:22:53;17.35;;;7.00;;
83684;SDS011;73666;51.304;5.776;2023-11-21T15:27:54;16.88;;;7.82;;
83684;SDS011;73666;51.304;5.776;2023-11-21T15:32:54;16.92;;;8.60;;
83684;SDS011;73666;51.304;5.776;2023-11-21T15:37:55;19.15;;;8.65;;
83684;SDS011;73666;51.304;5.776;2023-11-21T15:42:59;16.90;;;8.98;;
83684;SDS011;73666;51.304;5.776;2023-11-21T15:48:03;15.80;;;7.35;;
83684;SDS011;73666;51.304;5.776;2023-11-21T15:53:05;15.57;;;7.35;;
83684;SDS011;73666;51.304;5.776;2023-11-21T15:58:06;13.93;;;6.75;;
83684;SDS011;73666;51.304;5.776;2023-11-21T16:03:06;15.48;;;6.78;;
83684;SDS011;73666;51.304;5.776;2023-11-21T16:08:09;18.55;;;9.57;;
83684;SDS011;73666;51.304;5.776;2023-11-21T16:13:10;13.43;;;6.55;;
83684;SDS011;73666;51.304;5.776;2023-11-21T16:18:13;14.52;;;7.63;;
83684;SDS011;73666;51.304;5.776;2023-11-21T16:23:14;12.98;;;6.35;;
83684;SDS011;73666;51.304;5.776;2023-11-21T16:28:16;14.05;;;6.57;;
83684;SDS011;73666;51.304;5.776;2023-11-21T16:33:18;12.20;;;6.40;;
83684;SDS011;73666;51.304;5.776;2023-11-21T16:38:19;11.90;;;6.85;;
83684;SDS011;73666;51.304;5.776;2023-11-21T16:43:20;11.90;;;6.03;;
83684;SDS011;73666;51.304;5.776;2023-11-21T16:48:21;18.45;;;6.78;;
83684;SDS011;73666;51.304;5.776;2023-11-21T16:53:22;16.38;;;6.65;;
83684;SDS011;73666;51.304;5.776;2023-11-21T16:58:22;15.60;;;6.45;;
83684;SDS011;73666;51.304;5.776;2023-11-21T17:03:23;12.55;;;4.35;;
83684;SDS011;73666;51.304;5.776;2023-11-21T17:08:26;10.82;;;5.80;;
83684;SDS011;73666;51.304;5.776;2023-11-21T17:13:28;15.02;;;5.22;;
83684;SDS011;73666;51.304;5.776;2023-11-21T17:18:29;10.27;;;4.88;;
83684;SDS011;73666;51.304;5.776;2023-11-21T17:23:30;10.13;;;4.20;;
83684;SDS011;73666;51.304;5.776;2023-11-21T17:28:31;14.88;;;6.00;;
83684;SDS011;73666;51.304;5.776;2023-11-21T17:33:32;12.00;;;5.07;;
83684;SDS011;73666;51.304;5.776;2023-11-21T17:38:32;10.23;;;4.03;;
83684;SDS011;73666;51.304;5.776;2023-11-21T17:43:33;12.63;;;5.50;;
83684;SDS011;73666;51.304;5.776;2023-11-21T17:48:39;15.13;;;6.60;;
83684;SDS011;73666;51.304;5.776;2023-11-21T17:53:41;11.30;;;5.97;;
83684;SDS011;73666;51.304;5.776;2023-11-21T17:58:43;11.50;;;5.47;;
83684;SDS011;73666;51.304;5.776;2023-11-21T18:03:44;10.77;;;5.70;;
83684;SDS011;73666;51.304;5.776;2023-11-21T18:08:45;15.00;;;6.97;;
83684;SDS011;73666;51.304;5.776;2023-11-21T18:13:46;12.60;;;5.78;;
83684;SDS011;73666;51.304;5.776;2023-11-21T18:18:47;13.68;;;6.15;;
83684;SDS011;73666;51.304;5.776;2023-11-21T18:23:50;13.63;;;5.82;;
83684;SDS011;73666;51.304;5.776;2023-11-21T18:28:51;11.60;;;6.63;;
83684;SDS011;73666;51.304;5.776;2023-11-21T18:33:52;11.77;;;6.45;;
83684;SDS011;73666;51.304;5.776;2023-11-21T18:38:53;9.27;;;5.03;;
83684;SDS011;73666;51.304;5.776;2023-11-21T18:43:53;11.43;;;5.45;;
83684;SDS011;73666;51.304;5.776;2023-11-21T18:48:54;8.68;;;4.75;;
83684;SDS011;73666;51.304;5.776;2023-11-21T18:53:56;6.93;;;4.65;;
83684;SDS011;73666;51.304;5.776;2023-11-21T18:58:57;9.52;;;4.90;;
83684;SDS011;73666;51.304;5.776;2023-11-21T19:03:58;8.32;;;4.88;;
83684;SDS011;73666;51.304;5.776;2023-11-21T19:08:59;8.40;;;5.07;;
83684;SDS011;73666;51.304;5.776;2023-11-21T19:14:00;12.38;;;5.32;;
83684;SDS011;73666;51.304;5.776;2023-11-21T19:19:01;7.70;;;4.90;;
83684;SDS011;73666;51.304;5.776;2023-11-21T19:24:02;8.38;;;5.15;;
83684;SDS011;73666;51.304;5.776;2023-11-21T19:29:03;8.32;;;4.68;;
83684;SDS011;73666;51.304;5.776;2023-11-21T19:34:05;9.95;;;5.32;;
83684;SDS011;73666;51.304;5.776;2023-11-21T19:39:05;8.57;;;5.32;;
83684;SDS011;73666;51.304;5.776;2023-11-21T19:44:08;12.15;;;5.95;;
83684;SDS011;73666;51.304;5.776;2023-11-21T19:49:08;18.23;;;10.40;;
83684;SDS011;73666;51.304;5.776;2023-11-21T19:54:12;10.68;;;6.45;;
83684;SDS011;73666;51.304;5.776;2023-11-21T19:59:15;11.98;;;6.80;;
83684;SDS011;73666;51.304;5.776;2023-11-21T20:04:16;12.00;;;6.90;;
83684;SDS011;73666;51.304;5.776;2023-11-21T20:09:17;11.48;;;6.18;;
83684;SDS011;73666;51.304;5.776;2023-11-21T20:14:17;14.27;;;7.70;;
83684;SDS011;73666;51.304;5.776;2023-11-21T20:19:18;11.52;;;6.22;;
83684;SDS011;73666;51.304;5.776;2023-11-21T20:24:19;12.23;;;6.22;;
83684;SDS011;73666;51.304;5.776;2023-11-21T20:29:20;13.70;;;5.80;;
83684;SDS011;73666;51.304;5.776;2023-11-21T20:34:22;15.85;;;6.63;;
83684;SDS011;73666;51.304;5.776;2023-11-21T20:39:23;14.85;;;7.43;;
83684;SDS011;73666;51.304;5.776;2023-11-21T20:44:24;14.65;;;8.77;;
83684;SDS011;73666;51.304;5.776;2023-11-21T20:49:25;15.15;;;6.93;;
83684;SDS011;73666;51.304;5.776;2023-11-21T20:54:26;14.65;;;8.25;;
83684;SDS011;73666;51.304;5.776;2023-11-21T20:59:27;12.38;;;6.47;;
83684;SDS011;73666;51.304;5.776;2023-11-21T21:04:27;11.45;;;5.70;;
83684;SDS011;73666;51.304;5.776;2023-11-21T21:09:29;15.13;;;7.18;;
83684;SDS011;73666;51.304;5.776;2023-11-21T21:14:30;15.27;;;7.28;;
83684;SDS011;73666;51.304;5.776;2023-11-21T21:19:30;10.85;;;6.65;;
83684;SDS011;73666;51.304;5.776;2023-11-21T21:24:32;12.88;;;7.32;;
83684;SDS011;73666;51.304;5.776;2023-11-21T21:29:33;9.18;;;5.68;;
83684;SDS011;73666;51.304;5.776;2023-11-21T21:34:34;12.77;;;6.88;;
83684;SDS011;73666;51.304;5.776;2023-11-21T21:39:35;11.85;;;6.15;;
83684;SDS011;73666;51.304;5.776;2023-11-21T21:44:35;10.88;;;6.20;;
83684;SDS011;73666;51.304;5.776;2023-11-21T21:49:38;12.82;;;6.70;;
83684;SDS011;73666;51.304;5.776;2023-11-21T21:54:39;12.10;;;6.70;;
83684;SDS011;73666;51.304;5.776;2023-11-21T21:59:40;16.33;;;7.63;;
83684;SDS011;73666;51.304;5.776;2023-11-21T22:04:42;16.83;;;8.98;;
83684;SDS011;73666;51.304;5.776;2023-11-21T22:09:43;15.98;;;6.40;;
83684;SDS011;73666;51.304;5.776;2023-11-21T22:14:44;12.13;;;5.53;;
83684;SDS011;73666;51.304;5.776;2023-11-21T22:19:45;12.00;;;5.95;;
83684;SDS011;73666;51.304;5.776;2023-11-21T22:24:46;12.70;;;5.35;;
83684;SDS011;73666;51.304;5.776;2023-11-21T22:29:46;11.40;;;5.60;;
83684;SDS011;73666;51.304;5.776;2023-11-21T22:34:47;10.20;;;5.72;;
83684;SDS011;73666;51.304;5.776;2023-11-21T22:39:48;9.95;;;5.53;;
83684;SDS011;73666;51.304;5.776;2023-11-21T22:44:49;12.07;;;5.88;;
83684;SDS011;73666;51.304;5.776;2023-11-21T22:49:49;12.20;;;5.60;;
83684;SDS011;73666;51.304;5.776;2023-11-21T22:54:50;11.75;;;4.45;;
83684;SDS011;73666;51.304;5.776;2023-11-21T22:59:51;9.32;;;4.50;;
83684;SDS011;73666;51.304;5.776;2023-11-21T23:04:52;8.77;;;4.63;;
83684;SDS011;73666;51.304;5.776;2023-11-21T23:09:53;7.50;;;4.20;;
83684;SDS011;73666;51.304;5.776;2023-11-21T23:14:54;10.85;;;5.43;;
83684;SDS011;73666;51.304;5.776;2023-11-21T23:19:54;8.82;;;4.95;;
83684;SDS011;73666;51.304;5.776;2023-11-21T23:24:55;9.90;;;5.40;;
83684;SDS011;73666;51.304;5.776;2023-11-21T23:29:56;9.05;;;5.10;;
83684;SDS011;73666;51.304;5.776;2023-11-21T23:34:57;9.10;;;4.95;;
83684;SDS011;73666;51.304;5.776;2023-11-21T23:39:57;14.57;;;6.13;;
83684;SDS011;73666;51.304;5.776;2023-11-21T23:44:59;10.98;;;5.22;;
83684;SDS011;73666;51.304;5.776;2023-11-21T23:50:01;13.07;;;5.47;;
83684;SDS011;73666;51.304;5.776;2023-11-21T23:55:04;13.25;;;6.10;;
